createdAt,value
2018-06-09T00:00:04.775Z,55.93
2018-06-09T00:02:31.909Z,55.87
2018-06-09T00:04:59.045Z,55.60
2018-06-09T00:07:26.300Z,56.43
2018-06-09T00:09:53.423Z,58.20
2018-06-09T00:12:20.557Z,57.30
2018-06-09T00:14:47.662Z,56.80
2018-06-09T00:17:14.860Z,55.90
2018-06-09T00:19:41.995Z,55.03
2018-06-09T00:22:09.157Z,54.90
2018-06-09T00:24:36.268Z,57.60
2018-06-09T00:27:03.419Z,57.67
2018-06-09T00:29:30.601Z,59.20
2018-06-09T00:31:57.778Z,59.00
2018-06-09T00:34:24.896Z,58.20
2018-06-09T00:36:52.005Z,59.87
2018-06-09T00:39:19.124Z,62.27
2018-06-09T00:41:46.262Z,60.40
2018-06-09T00:44:13.500Z,61.90
2018-06-09T00:46:40.613Z,59.33
2018-06-09T00:49:07.733Z,58.73
2018-06-09T00:51:34.864Z,60.13
2018-06-09T00:54:02.024Z,57.00
2018-06-09T00:56:34.998Z,54.40
2018-06-09T00:59:02.121Z,56.70
2018-06-09T01:01:29.270Z,55.00
2018-06-09T01:03:56.432Z,57.20
2018-06-09T01:06:23.552Z,58.67
2018-06-09T01:08:50.672Z,59.60
2018-06-09T01:11:17.810Z,60.63
2018-06-09T01:13:44.913Z,61.80
2018-06-09T01:16:12.031Z,63.27
2018-06-09T01:18:39.186Z,61.60
2018-06-09T01:21:06.357Z,62.67
2018-06-09T01:23:33.597Z,64.00
2018-06-09T01:26:00.721Z,65.07
2018-06-09T01:28:28.164Z,64.40
2018-06-09T01:30:55.268Z,65.60
2018-06-09T01:33:22.401Z,64.90
2018-06-09T01:35:49.499Z,67.80
2018-06-09T01:38:16.606Z,66.03
2018-06-09T01:40:43.709Z,63.97
2018-06-09T01:43:10.824Z,61.83
2018-06-09T01:45:37.934Z,63.90
2018-06-09T01:48:05.465Z,61.00
2018-06-09T01:50:32.601Z,63.07
2018-06-09T01:52:59.720Z,60.07
2018-06-09T01:55:26.835Z,59.67
2018-06-09T01:57:53.924Z,62.20
2018-06-09T02:00:21.029Z,62.17
2018-06-09T02:02:48.132Z,59.43
2018-06-09T02:05:15.244Z,59.07
2018-06-09T02:07:42.356Z,55.10
2018-06-09T02:10:09.460Z,54.60
2018-06-09T02:12:36.626Z,53.20
2018-06-09T02:15:03.804Z,54.07
2018-06-09T02:17:30.923Z,53.27
2018-06-09T02:19:58.040Z,53.77
2018-06-09T02:22:25.154Z,53.80
2018-06-09T02:24:52.260Z,52.70
2018-06-09T02:27:19.366Z,57.37
2018-06-09T02:29:46.462Z,55.17
2018-06-09T02:32:13.568Z,61.20
2018-06-09T02:34:40.786Z,63.00
2018-06-09T02:37:07.937Z,57.73
2018-06-09T02:39:35.121Z,55.00
2018-06-09T02:42:02.333Z,54.43
2018-06-09T02:44:29.436Z,55.20
2018-06-09T02:46:56.537Z,56.00
2018-06-09T02:49:23.640Z,54.03
2018-06-09T02:51:50.769Z,57.40
2018-06-09T02:54:17.877Z,56.50
2018-06-09T02:56:44.981Z,53.77
2018-06-09T02:59:12.079Z,53.13
2018-06-09T03:01:39.240Z,51.77
2018-06-09T03:04:06.404Z,53.07
2018-06-09T03:06:33.512Z,54.77
2018-06-09T03:09:00.625Z,55.20
2018-06-09T03:11:27.738Z,53.17
2018-06-09T03:13:54.841Z,53.90
2018-06-09T03:16:21.949Z,53.70
2018-06-09T03:18:49.061Z,54.90
2018-06-09T03:21:16.221Z,55.40
2018-06-09T03:23:43.333Z,54.33
2018-06-09T03:26:10.435Z,56.50
2018-06-09T03:28:37.532Z,54.20
2018-06-09T03:31:04.947Z,55.20
2018-06-09T03:33:36.357Z,50.90
2018-06-09T03:36:03.473Z,48.83
2018-06-09T03:38:30.621Z,47.80
2018-06-09T03:40:57.732Z,47.07
2018-06-09T03:43:24.905Z,47.67
2018-06-09T03:45:51.952Z,49.80
2018-06-09T03:48:19.056Z,54.50
2018-06-09T03:50:46.181Z,59.10
2018-06-09T03:53:13.306Z,57.47
2018-06-09T03:55:40.413Z,60.60
2018-06-09T03:58:07.526Z,56.50
2018-06-09T04:00:35.084Z,54.73
2018-06-09T04:03:02.198Z,55.60
2018-06-09T04:05:29.337Z,57.50
2018-06-09T04:07:56.460Z,55.77
2018-06-09T04:10:23.570Z,56.10
2018-06-09T04:12:50.665Z,56.07
2018-06-09T04:15:17.781Z,56.60
2018-06-09T04:17:44.922Z,55.63
2018-06-09T04:20:12.313Z,58.80
2018-06-09T04:22:39.430Z,59.80
2018-06-09T04:25:06.577Z,60.83
2018-06-09T04:27:33.744Z,58.80
2018-06-09T04:30:00.849Z,58.53
2018-06-09T04:32:27.970Z,61.67
2018-06-09T04:34:55.104Z,59.90
2018-06-09T04:37:22.252Z,60.97
2018-06-09T04:39:49.458Z,65.10
2018-06-09T04:42:16.554Z,60.50
2018-06-09T04:44:43.659Z,59.33
2018-06-09T04:47:10.780Z,60.70
2018-06-09T04:49:37.905Z,67.10
2018-06-09T04:52:05.072Z,70.47
2018-06-09T04:54:32.176Z,69.03
2018-06-09T04:56:59.301Z,68.87
2018-06-09T04:59:26.430Z,74.27
2018-06-09T05:01:53.603Z,71.80
2018-06-09T05:04:20.777Z,69.70
2018-06-09T05:06:47.893Z,70.47
2018-06-09T05:09:15.005Z,72.50
2018-06-09T05:11:42.116Z,70.60
2018-06-09T05:14:09.221Z,73.33
2018-06-09T05:16:36.337Z,70.37
2018-06-09T05:19:03.465Z,71.00
2018-06-09T05:21:30.593Z,71.87
2018-06-09T05:23:57.736Z,74.43
2018-06-09T05:26:24.866Z,75.80
2018-06-09T05:28:51.984Z,69.17
2018-06-09T05:31:19.092Z,74.93
2018-06-09T05:33:46.197Z,77.80
2018-06-09T05:36:13.310Z,76.07
2018-06-09T05:38:40.416Z,75.47
2018-06-09T05:41:07.521Z,74.10
2018-06-09T05:43:34.685Z,74.67
2018-06-09T05:46:01.826Z,83.67
2018-06-09T05:48:29.020Z,79.20
2018-06-09T05:50:56.109Z,76.63
2018-06-09T05:53:23.213Z,75.67
2018-06-09T05:55:50.323Z,77.40
2018-06-09T05:58:17.433Z,76.37
2018-06-09T06:00:44.539Z,79.57
2018-06-09T06:03:11.741Z,81.20
2018-06-09T06:05:38.853Z,74.90
2018-06-09T06:08:06.033Z,81.17
2018-06-09T06:10:33.182Z,71.97
2018-06-09T06:13:00.293Z,77.77
2018-06-09T06:15:27.407Z,80.53
2018-06-09T06:17:54.508Z,78.73
2018-06-09T06:20:21.680Z,79.60
2018-06-09T06:22:48.818Z,82.40
2018-06-09T06:25:15.937Z,77.63
2018-06-09T06:27:43.044Z,82.80
2018-06-09T06:30:10.162Z,81.03
2018-06-09T06:32:40.929Z,81.90
2018-06-09T06:35:13.221Z,84.00
2018-06-09T06:37:54.805Z,86.80
2018-06-09T06:40:32.950Z,85.50
2018-06-09T06:43:00.149Z,84.13
2018-06-09T06:45:27.261Z,85.87
2018-06-09T06:47:54.381Z,84.20
2018-06-09T06:50:21.539Z,85.20
2018-06-09T06:52:48.610Z,88.47
2018-06-09T06:55:19.169Z,82.47
2018-06-09T06:57:46.280Z,85.33
2018-06-09T07:00:13.746Z,86.90
2018-06-09T07:02:40.997Z,84.50
2018-06-09T07:05:08.088Z,84.73
2018-06-09T07:07:35.597Z,84.20
2018-06-09T07:10:02.729Z,82.30
2018-06-09T07:12:29.888Z,84.27
2018-06-09T07:14:57.076Z,83.27
2018-06-09T07:17:24.197Z,90.97
2018-06-09T07:19:51.365Z,84.20
2018-06-09T07:22:18.485Z,83.67
2018-06-09T07:24:45.601Z,82.20
2018-06-09T07:27:12.753Z,79.60
2018-06-09T07:29:39.864Z,83.90
2018-06-09T07:32:07.148Z,84.60
2018-06-09T07:34:34.258Z,81.47
2018-06-09T07:37:01.369Z,80.10
2018-06-09T07:39:28.501Z,80.20
2018-06-09T07:41:55.613Z,77.47
2018-06-09T07:44:22.722Z,75.67
2018-06-09T07:46:49.839Z,74.00
2018-06-09T07:49:16.998Z,76.60
2018-06-09T07:51:44.132Z,76.10
2018-06-09T07:54:11.292Z,73.67
2018-06-09T07:56:38.397Z,78.30
2018-06-09T07:59:06.109Z,75.53
2018-06-09T08:01:33.234Z,76.57
2018-06-09T08:04:00.348Z,76.80
2018-06-09T08:06:27.468Z,78.57
2018-06-09T08:08:54.617Z,78.60
2018-06-09T08:11:21.723Z,78.60
2018-06-09T08:13:48.849Z,80.83
2018-06-09T08:16:15.969Z,78.93
2018-06-09T08:18:43.077Z,79.10
2018-06-09T08:21:10.231Z,78.53
2018-06-09T08:23:37.333Z,74.60
2018-06-09T08:26:04.455Z,76.47
2018-06-09T08:28:31.568Z,74.60
2018-06-09T08:30:58.673Z,77.17
2018-06-09T08:33:25.785Z,73.77
2018-06-09T08:35:53.065Z,73.30
2018-06-09T08:38:20.168Z,72.40
2018-06-09T08:40:47.309Z,67.60
2018-06-09T08:43:14.540Z,71.03
2018-06-09T08:45:41.633Z,67.50
2018-06-09T08:48:08.748Z,67.43
2018-06-09T08:50:35.873Z,70.40
2018-06-09T08:53:02.994Z,71.20
2018-06-09T08:55:30.125Z,67.60
2018-06-09T08:57:57.332Z,65.20
2018-06-09T09:00:24.485Z,61.00
2018-06-09T09:02:51.629Z,60.73
2018-06-09T09:05:18.737Z,60.50
2018-06-09T09:07:45.857Z,60.40
2018-06-09T09:10:13.030Z,63.33
2018-06-09T09:12:40.170Z,61.00
2018-06-09T09:15:07.277Z,61.53
2018-06-09T09:17:34.414Z,57.10
2018-06-09T09:20:01.534Z,59.20
2018-06-09T09:22:28.701Z,56.60
2018-06-09T09:24:55.853Z,58.80
2018-06-09T09:27:23.037Z,58.73
2018-06-09T09:29:50.145Z,57.70
2018-06-09T09:32:17.283Z,59.90
2018-06-09T09:34:44.527Z,59.60
2018-06-09T09:37:11.645Z,57.10
2018-06-09T09:39:38.757Z,56.37
2018-06-09T09:42:05.894Z,55.03
2018-06-09T09:44:33.005Z,57.17
2018-06-09T09:47:00.230Z,54.20
2018-06-09T09:49:27.353Z,56.03
2018-06-09T09:51:54.512Z,54.80
2018-06-09T09:54:21.630Z,54.27
2018-06-09T09:56:48.737Z,54.60
2018-06-09T09:59:16.247Z,53.87
2018-06-09T10:01:43.336Z,57.07
2018-06-09T10:04:10.485Z,51.97
2018-06-09T10:06:37.593Z,54.50
2018-06-09T10:09:06.541Z,49.17
2018-06-09T10:11:33.652Z,49.43
2018-06-09T10:14:00.829Z,47.13
2018-06-09T10:16:27.939Z,49.40
2018-06-09T10:18:55.078Z,51.83
2018-06-09T10:21:22.195Z,51.50
2018-06-09T10:23:49.310Z,48.23
2018-06-09T10:28:54.581Z,51.60
2018-06-09T10:31:21.728Z,49.47
2018-06-09T10:33:49.125Z,50.50
2018-06-09T10:36:16.260Z,53.10
2018-06-09T10:38:43.425Z,48.40
2018-06-09T10:41:10.488Z,49.93
2018-06-09T10:43:37.633Z,50.43
2018-06-09T10:46:04.841Z,48.63
2018-06-09T10:48:31.973Z,49.20
2018-06-09T10:50:59.156Z,51.10
2018-06-09T10:53:26.802Z,47.37
2018-06-09T10:55:54.011Z,51.47
2018-06-09T10:58:21.105Z,45.80
2018-06-09T11:00:48.294Z,44.63
2018-06-09T11:03:15.410Z,46.93
2018-06-09T11:05:42.789Z,49.03
2018-06-09T11:08:09.910Z,47.80
2018-06-09T11:10:37.033Z,45.03
2018-06-09T11:13:04.238Z,45.73
2018-06-09T11:15:31.393Z,48.93
2018-06-09T11:17:58.573Z,47.27
2018-06-09T11:20:25.760Z,46.10
2018-06-09T11:22:52.842Z,46.53
2018-06-09T11:25:19.989Z,43.77
2018-06-09T11:27:47.118Z,41.07
2018-06-09T11:30:14.217Z,39.53
2018-06-09T11:32:41.325Z,45.53
2018-06-09T11:35:08.492Z,41.10
2018-06-09T11:37:35.613Z,39.30
2018-06-09T11:40:02.757Z,41.10
2018-06-09T11:42:29.897Z,38.17
2018-06-09T11:44:57.009Z,34.70
2018-06-09T11:47:24.148Z,35.53
2018-06-09T11:49:51.257Z,40.30
2018-06-09T11:52:18.409Z,35.60
2018-06-09T11:54:45.524Z,41.80
2018-06-09T11:57:12.705Z,42.27
2018-06-09T11:59:39.832Z,34.80
2018-06-09T12:02:07.260Z,33.90
2018-06-09T12:04:34.389Z,34.47
2018-06-09T12:07:01.502Z,28.27
2018-06-09T12:09:28.634Z,31.37
2018-06-09T12:14:30.913Z,30.50
2018-06-09T12:16:58.092Z,27.60
2018-06-09T12:19:25.205Z,28.33
2018-06-09T12:21:52.313Z,28.87
2018-06-09T12:24:19.466Z,27.50
2018-06-09T12:26:46.582Z,23.70
2018-06-09T12:29:13.698Z,22.80
2018-06-09T12:31:40.810Z,26.87
2018-06-09T12:34:07.927Z,23.40
2018-06-09T12:36:35.050Z,24.53
2018-06-09T12:39:02.168Z,21.03
2018-06-09T12:41:29.345Z,24.03
2018-06-09T12:43:56.469Z,19.97
2018-06-09T12:46:23.581Z,21.23
2018-06-09T12:48:50.799Z,22.47
2018-06-09T12:51:17.842Z,18.27
2018-06-09T12:53:44.966Z,17.83
2018-06-09T12:56:12.086Z,20.10
2018-06-09T12:58:39.185Z,21.20
2018-06-09T13:01:06.292Z,21.57
2018-06-09T13:03:33.445Z,18.90
2018-06-09T13:06:00.592Z,18.63
2018-06-09T13:08:27.694Z,17.27
2018-06-09T13:10:54.809Z,18.70
2018-06-09T13:13:21.949Z,20.10
2018-06-09T13:15:49.062Z,17.03
2018-06-09T13:18:16.174Z,17.70
2018-06-09T13:20:43.316Z,17.40
2018-06-09T13:23:10.445Z,18.90
2018-06-09T13:25:37.609Z,17.93
2018-06-09T13:28:04.744Z,15.67
2018-06-09T13:30:31.880Z,17.10
2018-06-09T13:32:58.989Z,16.73
2018-06-09T13:35:26.104Z,15.87
2018-06-09T13:37:53.213Z,19.20
2018-06-09T13:40:20.358Z,17.03
2018-06-09T13:42:47.469Z,15.03
2018-06-09T13:45:14.678Z,16.30
2018-06-09T13:47:41.805Z,18.33
2018-06-09T13:50:09.013Z,16.63
2018-06-09T13:52:36.124Z,16.73
2018-06-09T13:55:03.301Z,20.03
2018-06-09T13:57:30.437Z,16.93
2018-06-09T13:59:57.536Z,19.83
2018-06-09T14:02:24.661Z,18.70
2018-06-09T14:04:51.769Z,16.60
2018-06-09T14:07:18.913Z,17.07
2018-06-09T14:09:46.425Z,15.00
2018-06-09T14:12:13.637Z,16.00
2018-06-09T14:14:40.789Z,15.30
2018-06-09T14:17:07.897Z,17.27
2018-06-09T14:19:35.022Z,18.00
2018-06-09T14:22:02.112Z,14.57
2018-06-09T14:24:29.245Z,16.60
2018-06-09T14:26:56.378Z,14.77
2018-06-09T14:29:23.474Z,16.10
2018-06-09T14:31:51.503Z,13.90
2018-06-09T14:34:18.693Z,18.40
2018-06-09T14:36:50.752Z,15.30
2018-06-09T14:39:39.702Z,16.37
2018-06-09T14:42:06.817Z,17.37
2018-06-09T14:44:34.197Z,14.23
2018-06-09T14:47:01.312Z,13.73
2018-06-09T14:49:29.475Z,16.40
2018-06-09T14:51:56.818Z,17.90
2018-06-09T14:54:23.941Z,13.80
2018-06-09T14:56:51.117Z,16.63
2018-06-09T14:59:18.224Z,17.33
2018-06-09T15:01:45.350Z,17.10
2018-06-09T15:04:12.453Z,17.47
2018-06-09T15:06:39.572Z,16.60
2018-06-09T15:09:07.655Z,15.93
2018-06-09T15:11:34.777Z,15.30
2018-06-09T15:14:01.889Z,13.97
2018-06-09T15:16:29.141Z,13.60
2018-06-09T15:18:56.276Z,14.40
2018-06-09T15:21:23.409Z,13.00
2018-06-09T15:23:50.513Z,15.33
2018-06-09T15:26:17.634Z,14.60
2018-06-09T15:28:44.737Z,14.53
2018-06-09T15:31:11.849Z,14.23
2018-06-09T15:33:38.960Z,15.70
2018-06-09T15:36:06.071Z,14.10
2018-06-09T15:38:33.193Z,14.23
2018-06-09T15:41:00.385Z,14.70
2018-06-09T15:43:27.548Z,14.80
2018-06-09T15:45:54.645Z,15.43
2018-06-09T15:48:21.761Z,14.40
2018-06-09T15:50:48.865Z,13.70
2018-06-09T15:53:16.038Z,13.97
2018-06-09T15:55:43.177Z,13.50
2018-06-09T15:58:10.734Z,13.73
2018-06-09T16:00:37.900Z,17.53
2018-06-09T16:03:05.047Z,14.93
2018-06-09T16:05:32.225Z,14.60
2018-06-09T16:07:59.331Z,14.37
2018-06-09T16:10:26.445Z,13.77
2018-06-09T16:12:53.605Z,13.73
2018-06-09T16:15:20.804Z,13.80
2018-06-09T16:17:47.900Z,14.73
2018-06-09T16:20:15.058Z,14.13
2018-06-09T16:22:42.137Z,14.30
2018-06-09T16:25:09.274Z,14.17
2018-06-09T16:27:36.469Z,14.03
2018-06-09T16:30:03.687Z,14.60
2018-06-09T16:32:30.788Z,14.43
2018-06-09T16:34:57.996Z,15.80
2018-06-09T16:37:25.085Z,13.07
2018-06-09T16:39:52.188Z,14.10
2018-06-09T16:42:19.336Z,14.40
2018-06-09T16:44:46.455Z,14.13
2018-06-09T16:47:13.569Z,14.30
2018-06-09T16:49:40.689Z,13.57
2018-06-09T16:52:07.809Z,14.30
2018-06-09T16:54:34.958Z,13.53
2018-06-09T16:57:02.150Z,14.63
2018-06-09T16:59:29.234Z,13.80
2018-06-09T17:01:56.344Z,13.20
2018-06-09T17:04:23.460Z,14.50
2018-06-09T17:06:50.733Z,14.77
2018-06-09T17:09:17.908Z,15.47
2018-06-09T17:11:46.153Z,14.70
2018-06-09T17:14:13.881Z,14.40
2018-06-09T17:16:41.005Z,15.10
2018-06-09T17:19:10.042Z,14.73
2018-06-09T17:21:37.269Z,14.77
2018-06-09T17:24:05.364Z,14.73
2018-06-09T17:26:32.549Z,15.07
2018-06-09T17:28:59.657Z,15.40
2018-06-09T17:31:27.161Z,15.20
2018-06-09T17:33:54.304Z,14.50
2018-06-09T17:36:27.585Z,15.37
2018-06-09T17:38:55.909Z,13.97
2018-06-09T17:41:23.001Z,14.50
2018-06-09T17:43:51.091Z,16.10
2018-06-09T17:46:18.160Z,14.10
2018-06-09T17:48:45.265Z,14.23
2018-06-09T17:51:12.399Z,15.50
2018-06-09T17:53:39.512Z,14.10
2018-06-09T17:56:06.624Z,15.70
2018-06-09T17:58:33.737Z,16.13
2018-06-09T18:01:00.884Z,14.50
2018-06-09T18:03:28.065Z,15.30
2018-06-09T18:05:55.185Z,14.80
2018-06-09T18:08:22.317Z,15.47
2018-06-09T18:10:49.538Z,15.00
2018-06-09T18:13:16.669Z,16.27
2018-06-09T18:15:43.827Z,14.73
2018-06-09T18:18:10.942Z,15.10
2018-06-09T18:20:38.056Z,14.77
2018-06-09T18:23:05.185Z,14.40
2018-06-09T18:25:32.414Z,14.70
2018-06-09T18:27:59.653Z,14.20
2018-06-09T18:30:26.798Z,14.80
2018-06-09T18:32:53.924Z,15.00
2018-06-09T18:35:21.029Z,14.20
2018-06-09T18:37:48.200Z,15.03
2018-06-09T18:40:15.345Z,14.40
2018-06-09T18:42:42.548Z,14.93
2018-06-09T18:45:09.671Z,14.60
2018-06-09T18:47:36.769Z,14.23
2018-06-09T18:50:03.929Z,14.17
2018-06-09T18:52:31.065Z,15.10
2018-06-09T18:54:58.156Z,14.90
2018-06-09T18:57:25.258Z,14.97
2018-06-09T18:59:52.377Z,15.30
2018-06-09T19:02:19.484Z,15.00
2018-06-09T19:04:46.613Z,15.20
2018-06-09T19:07:13.716Z,15.00
2018-06-09T19:09:40.830Z,14.90
2018-06-09T19:12:07.970Z,14.37
2018-06-09T19:14:35.212Z,15.87
2018-06-09T19:17:02.328Z,15.80
2018-06-09T19:19:29.438Z,15.67
2018-06-09T19:21:56.629Z,15.83
2018-06-09T19:24:23.653Z,16.63
2018-06-09T19:26:50.781Z,15.80
2018-06-09T19:29:17.932Z,16.47
2018-06-09T19:31:45.049Z,15.80
2018-06-09T19:34:12.216Z,16.23
2018-06-09T19:36:39.329Z,15.43
2018-06-09T19:39:07.125Z,15.97
2018-06-09T19:41:34.511Z,15.90
2018-06-09T19:44:01.413Z,16.90
2018-06-09T19:46:28.516Z,16.33
2018-06-09T19:48:55.676Z,16.33
2018-06-09T19:51:22.785Z,16.80
2018-06-09T19:53:49.901Z,16.20
2018-06-09T19:56:17.021Z,17.17
2018-06-09T19:58:44.157Z,16.40
2018-06-09T20:01:11.271Z,17.13
2018-06-09T20:03:38.384Z,17.80
2018-06-09T20:06:05.484Z,17.33
2018-06-09T20:08:32.592Z,17.10
2018-06-09T20:10:59.740Z,16.67
2018-06-09T20:13:26.900Z,16.80
2018-06-09T20:15:54.009Z,16.67
2018-06-09T20:18:21.141Z,17.33
2018-06-09T20:20:48.284Z,17.30
2018-06-09T20:23:15.460Z,16.47
2018-06-09T20:25:42.584Z,17.13
2018-06-09T20:28:09.717Z,16.63
2018-06-09T20:30:36.854Z,17.70
2018-06-09T20:33:04.006Z,16.63
2018-06-09T20:35:31.124Z,16.97
2018-06-09T20:37:58.233Z,17.30
2018-06-09T20:40:25.361Z,16.93
2018-06-09T20:42:52.501Z,17.23
2018-06-09T20:45:19.622Z,16.97
2018-06-09T20:47:46.733Z,16.90
2018-06-09T20:50:13.953Z,18.00
2018-06-09T20:52:41.049Z,17.17
2018-06-09T20:55:08.505Z,17.20
2018-06-09T20:57:35.620Z,17.40
2018-06-09T21:00:02.863Z,17.80
2018-06-09T21:02:29.969Z,17.43
2018-06-09T21:04:57.080Z,18.13
2018-06-09T21:07:24.233Z,18.97
2018-06-09T21:09:51.372Z,17.67
2018-06-09T21:12:18.536Z,19.37
2018-06-09T21:14:45.677Z,19.40
2018-06-09T21:17:12.792Z,18.33
2018-06-09T21:19:40.501Z,18.77
2018-06-09T21:22:07.705Z,19.80
2018-06-09T21:24:34.813Z,19.40
2018-06-09T21:27:07.566Z,19.20
2018-06-09T21:29:40.177Z,19.37
2018-06-09T21:32:09.724Z,19.53
2018-06-09T21:34:47.932Z,18.83
2018-06-09T21:37:15.093Z,20.47
2018-06-09T21:39:47.589Z,20.83
2018-06-09T21:42:20.218Z,21.23
2018-06-09T21:44:47.415Z,20.30
2018-06-09T21:47:14.530Z,19.03
2018-06-09T21:49:41.642Z,20.33
2018-06-09T21:52:08.755Z,19.67
2018-06-09T21:54:35.877Z,21.87
2018-06-09T21:57:02.986Z,21.27
2018-06-09T21:59:30.149Z,20.37
2018-06-09T22:01:57.284Z,20.90
2018-06-09T22:04:24.396Z,19.10
2018-06-09T22:06:51.523Z,20.83
2018-06-09T22:09:18.630Z,20.07
2018-06-09T22:11:45.745Z,19.83
2018-06-09T22:14:12.869Z,20.90
2018-06-09T22:16:40.092Z,21.17
2018-06-09T22:19:07.211Z,20.17
2018-06-09T22:21:34.362Z,20.40
2018-06-09T22:24:01.477Z,20.07
2018-06-09T22:26:28.608Z,20.20
2018-06-09T22:28:56.027Z,20.30
2018-06-09T22:31:23.119Z,20.23
2018-06-09T22:33:50.301Z,22.00
2018-06-09T22:36:17.408Z,23.77
2018-06-09T22:38:44.507Z,26.30
2018-06-09T22:41:11.618Z,27.27
2018-06-09T22:43:38.765Z,25.57
2018-06-09T22:46:05.879Z,28.00
2018-06-09T22:48:33.029Z,27.00
2018-06-09T22:51:00.213Z,27.37
2018-06-09T22:53:27.320Z,26.90
2018-06-09T22:55:54.453Z,26.73
2018-06-09T22:58:21.565Z,27.03
2018-06-09T23:00:49.583Z,29.20
2018-06-09T23:03:16.733Z,31.93
2018-06-09T23:05:43.981Z,37.63
2018-06-09T23:08:11.551Z,40.73
2018-06-09T23:10:38.673Z,41.30
2018-06-09T23:13:05.860Z,41.70
2018-06-09T23:15:33.105Z,39.90
2018-06-09T23:18:00.275Z,41.63
2018-06-09T23:20:27.382Z,39.90
2018-06-09T23:22:54.522Z,42.27
2018-06-09T23:25:21.646Z,43.40
2018-06-09T23:27:48.745Z,44.30
2018-06-09T23:30:15.866Z,39.60
2018-06-09T23:32:43.010Z,35.90
2018-06-09T23:35:10.142Z,29.20
2018-06-09T23:37:37.351Z,29.77
2018-06-09T23:40:04.573Z,28.53
2018-06-09T23:42:31.681Z,27.93
2018-06-09T23:44:58.794Z,22.23
2018-06-09T23:47:25.901Z,20.30
2018-06-09T23:49:53.013Z,15.93
2018-06-09T23:52:20.127Z,11.33
2018-06-09T23:54:47.521Z,9.50
2018-06-09T23:57:14.672Z,10.70
2018-06-09T23:59:41.785Z,9.90
